createdAt,value
2019-03-18T00:02:07.878Z,100.00
2019-03-18T00:04:36.997Z,100.00
2019-03-18T00:07:06.097Z,100.00
2019-03-18T00:09:35.177Z,100.00
2019-03-18T00:12:04.325Z,100.00
2019-03-18T00:14:35.725Z,100.00
2019-03-18T00:17:04.900Z,100.00
2019-03-18T00:19:33.901Z,100.00
2019-03-18T00:22:02.882Z,100.00
2019-03-18T00:24:31.936Z,100.00
2019-03-18T00:27:02.844Z,100.00
2019-03-18T00:29:31.907Z,100.00
2019-03-18T00:32:00.968Z,100.00
2019-03-18T00:34:29.933Z,100.00
2019-03-18T00:36:58.974Z,100.00
2019-03-18T00:39:28.001Z,100.00
2019-03-18T00:42:00.513Z,100.00
2019-03-18T00:44:28.704Z,100.00
2019-03-18T00:47:12.540Z,100.00
2019-03-18T00:50:02.765Z,100.00
2019-03-18T00:52:34.969Z,100.00
2019-03-18T00:55:11.105Z,100.00
2019-03-18T00:57:40.412Z,100.00
2019-03-18T01:00:10.368Z,100.00
2019-03-18T01:02:39.577Z,100.00
2019-03-18T01:05:16.018Z,100.00
2019-03-18T01:07:45.211Z,100.00
2019-03-18T01:10:15.663Z,100.00
2019-03-18T01:12:44.704Z,100.00
2019-03-18T01:15:27.891Z,100.00
2019-03-18T01:17:51.471Z,100.00
2019-03-18T01:20:22.075Z,100.00
2019-03-18T01:22:52.957Z,100.00
2019-03-18T01:25:22.056Z,100.00
2019-03-18T01:27:51.068Z,100.00
2019-03-18T01:30:20.172Z,100.00
2019-03-18T01:32:49.384Z,100.00
2019-03-18T01:35:36.306Z,100.00
2019-03-18T01:38:08.541Z,100.00
2019-03-18T01:40:37.674Z,100.00
2019-03-18T01:43:12.937Z,100.00
2019-03-18T01:45:56.864Z,100.00
2019-03-18T01:48:26.333Z,100.00
2019-03-18T01:53:15.477Z,100.00
2019-03-18T01:55:45.165Z,100.00
2019-03-18T01:58:45.186Z,100.00
2019-03-18T02:02:03.067Z,100.00
2019-03-18T02:05:00.557Z,100.00
2019-03-18T02:07:29.623Z,100.00
2019-03-18T02:09:58.740Z,100.00
2019-03-18T02:12:27.745Z,100.00
2019-03-18T02:14:58.035Z,100.00
2019-03-18T02:17:27.076Z,100.00
2019-03-18T02:19:56.192Z,100.00
2019-03-18T02:22:25.318Z,100.00
2019-03-18T02:24:54.346Z,100.00
2019-03-18T02:27:23.326Z,100.00
2019-03-18T02:29:52.325Z,100.00
2019-03-18T02:32:21.325Z,100.00
2019-03-18T02:34:50.329Z,100.00
2019-03-18T02:37:19.455Z,100.00
2019-03-18T02:39:48.515Z,100.00
2019-03-18T02:42:17.534Z,100.00
2019-03-18T02:44:47.619Z,100.00
2019-03-18T02:47:21.163Z,100.00
2019-03-18T02:49:51.898Z,100.00
2019-03-18T02:52:21.165Z,100.00
2019-03-18T02:54:51.048Z,100.00
2019-03-18T02:57:20.575Z,100.00
2019-03-18T02:59:49.571Z,100.00
2019-03-18T03:02:23.582Z,100.00
2019-03-18T03:04:52.893Z,100.00
2019-03-18T03:07:22.103Z,100.00
2019-03-18T03:09:53.761Z,100.00
2019-03-18T03:12:34.150Z,100.00
2019-03-18T03:15:03.315Z,100.00
2019-03-18T03:17:32.590Z,100.00
2019-03-18T03:20:04.979Z,100.00
2019-03-18T03:22:34.180Z,100.00
2019-03-18T03:25:03.547Z,100.00
2019-03-18T03:27:34.229Z,100.00
2019-03-18T03:30:03.449Z,100.00
2019-03-18T03:32:32.712Z,100.00
2019-03-18T03:35:01.908Z,100.00
2019-03-18T03:37:37.002Z,100.00
2019-03-18T03:40:09.426Z,100.00
2019-03-18T03:42:38.791Z,100.00
2019-03-18T03:48:24.219Z,100.00
2019-03-18T03:50:53.419Z,100.00
2019-03-18T03:53:22.628Z,100.00
2019-03-18T03:55:51.952Z,100.00
2019-03-18T03:58:24.235Z,100.00
2019-03-18T04:00:55.189Z,100.00
2019-03-18T04:03:37.772Z,100.00
2019-03-18T04:05:55.720Z,100.00
2019-03-18T04:08:28.826Z,100.00
2019-03-18T04:10:58.296Z,100.00
2019-03-18T04:13:27.715Z,100.00
2019-03-18T04:16:17.663Z,100.00
2019-03-18T04:18:56.120Z,100.00
2019-03-18T04:21:34.973Z,100.00
2019-03-18T04:24:04.056Z,100.00
2019-03-18T04:26:33.075Z,100.00
2019-03-18T04:29:02.149Z,100.00
2019-03-18T04:31:32.271Z,100.00
2019-03-18T04:34:01.350Z,100.00
2019-03-18T04:36:30.371Z,100.00
2019-03-18T04:38:59.480Z,100.00
2019-03-18T04:41:28.501Z,100.00
2019-03-18T04:43:57.549Z,100.00
2019-03-18T04:46:26.637Z,100.00
2019-03-18T04:48:55.639Z,100.00
2019-03-18T04:51:24.633Z,100.00
2019-03-18T04:53:53.689Z,100.00
2019-03-18T04:56:22.678Z,100.00
2019-03-18T04:58:51.701Z,100.00
2019-03-18T05:01:20.709Z,100.00
2019-03-18T05:03:49.781Z,100.00
2019-03-18T05:06:18.753Z,100.00
2019-03-18T05:08:47.779Z,100.00
2019-03-18T05:11:16.806Z,100.00
2019-03-18T05:13:45.924Z,100.00
2019-03-18T05:16:14.897Z,100.00
2019-03-18T05:18:43.913Z,100.00
2019-03-18T05:21:12.932Z,100.00
2019-03-18T05:23:41.939Z,100.00
2019-03-18T05:26:10.928Z,100.00
2019-03-18T05:28:39.949Z,100.00
2019-03-18T05:31:09.105Z,100.00
2019-03-18T05:33:38.207Z,100.00
2019-03-18T05:36:07.185Z,100.00
2019-03-18T05:38:36.284Z,100.00
2019-03-18T05:41:05.411Z,100.00
2019-03-18T05:43:34.415Z,100.00
2019-03-18T05:46:05.525Z,100.00
2019-03-18T05:48:34.811Z,100.00
2019-03-18T05:51:03.824Z,100.00
2019-03-18T05:53:32.853Z,100.00
2019-03-18T05:56:03.637Z,100.00
2019-03-18T05:58:32.750Z,100.00
2019-03-18T06:01:01.837Z,100.00
2019-03-18T06:03:30.868Z,100.00
2019-03-18T06:05:59.946Z,100.00
2019-03-18T06:08:29.025Z,100.00
2019-03-18T06:10:58.105Z,100.00
2019-03-18T06:13:27.150Z,100.00
2019-03-18T06:15:56.159Z,100.00
2019-03-18T06:18:25.186Z,100.00
2019-03-18T06:20:54.176Z,100.00
2019-03-18T06:23:23.254Z,100.00
2019-03-18T06:25:52.285Z,100.00
2019-03-18T06:28:21.282Z,100.00
2019-03-18T06:30:50.326Z,100.00
2019-03-18T06:33:19.329Z,100.00
2019-03-18T06:35:48.319Z,100.00
2019-03-18T06:38:17.319Z,100.00
2019-03-18T06:40:46.413Z,100.00
2019-03-18T06:43:15.450Z,100.00
2019-03-18T06:45:44.452Z,100.00
2019-03-18T06:48:13.423Z,100.00
2019-03-18T06:50:42.467Z,100.00
2019-03-18T06:53:11.445Z,100.00
2019-03-18T06:55:40.480Z,100.00
2019-03-18T06:58:09.461Z,100.00
2019-03-18T07:00:38.513Z,100.00
2019-03-18T07:03:07.512Z,100.00
2019-03-18T07:05:36.499Z,100.00
2019-03-18T07:08:05.662Z,100.00
2019-03-18T07:10:34.669Z,100.00
2019-03-18T07:13:03.736Z,100.00
2019-03-18T07:15:32.830Z,100.00
2019-03-18T07:18:01.823Z,100.00
2019-03-18T07:20:30.879Z,100.00
2019-03-18T07:22:59.986Z,100.00
2019-03-18T07:25:29.082Z,100.00
2019-03-18T07:27:58.190Z,100.00
2019-03-18T07:30:27.199Z,100.00
2019-03-18T07:32:56.194Z,100.00
2019-03-18T07:35:27.477Z,100.00
2019-03-18T07:37:56.483Z,100.00
2019-03-18T07:40:25.669Z,100.00
2019-03-18T07:42:54.764Z,100.00
2019-03-18T07:45:23.821Z,100.00
2019-03-18T07:47:52.868Z,100.00
2019-03-18T07:50:21.993Z,100.00
2019-03-18T07:52:50.994Z,100.00
2019-03-18T07:55:20.039Z,100.00
2019-03-18T07:57:49.096Z,100.00
2019-03-18T08:00:18.254Z,100.00
2019-03-18T08:02:47.344Z,100.00
2019-03-18T08:05:16.412Z,100.00
2019-03-18T08:07:45.435Z,100.00
2019-03-18T08:10:14.704Z,100.00
2019-03-18T08:12:43.811Z,100.00
2019-03-18T08:15:12.905Z,98.79
2019-03-18T08:17:41.993Z,98.79
2019-03-18T08:20:11.199Z,97.83
2019-03-18T08:22:40.265Z,98.29
2019-03-18T08:25:09.596Z,98.29
2019-03-18T08:27:38.690Z,98.69
2019-03-18T08:30:08.344Z,95.35
2019-03-18T08:32:39.521Z,93.52
2019-03-18T08:35:08.550Z,96.68
2019-03-18T08:37:37.553Z,95.57
2019-03-18T08:40:07.196Z,95.84
2019-03-18T08:42:36.359Z,98.98
2019-03-18T08:45:05.835Z,98.98
2019-03-18T08:47:34.845Z,95.47
2019-03-18T08:50:04.012Z,95.04
2019-03-18T08:52:33.077Z,95.04
2019-03-18T08:55:02.142Z,94.56
2019-03-18T08:57:31.120Z,93.95
2019-03-18T09:00:00.356Z,93.95
2019-03-18T09:02:29.360Z,92.47
2019-03-18T09:04:58.529Z,92.57
2019-03-18T09:07:27.600Z,88.71
2019-03-18T09:09:58.115Z,89.44
2019-03-18T09:12:27.344Z,90.42
2019-03-18T09:14:56.360Z,90.42
2019-03-18T09:17:25.398Z,89.18
2019-03-18T09:19:54.421Z,87.87
2019-03-18T09:22:23.651Z,90.90
2019-03-18T09:24:53.061Z,86.47
2019-03-18T09:27:22.108Z,85.20
2019-03-18T09:29:51.235Z,85.20
2019-03-18T09:32:22.150Z,84.45
2019-03-18T09:34:51.252Z,84.45
2019-03-18T09:37:20.338Z,78.28
2019-03-18T09:39:49.442Z,81.99
2019-03-18T09:42:18.675Z,79.06
2019-03-18T09:44:47.802Z,79.06
2019-03-18T09:47:16.931Z,78.51
2019-03-18T09:49:46.028Z,74.81
2019-03-18T09:52:15.104Z,73.01
2019-03-18T09:54:44.175Z,73.01
2019-03-18T09:57:25.078Z,76.68
2019-03-18T09:59:44.065Z,76.68
2019-03-18T10:02:13.187Z,73.08
2019-03-18T10:04:42.178Z,86.38
2019-03-18T10:07:13.571Z,96.78
2019-03-18T10:09:43.270Z,97.98
2019-03-18T10:12:12.247Z,97.98
2019-03-18T10:14:41.328Z,98.89
2019-03-18T10:17:10.395Z,93.42
2019-03-18T10:19:39.381Z,96.63
2019-03-18T10:22:08.503Z,96.59
2019-03-18T10:24:37.528Z,91.72
2019-03-18T10:27:06.624Z,91.72
2019-03-18T10:29:35.610Z,90.20
2019-03-18T10:32:04.791Z,82.78
2019-03-18T10:34:33.882Z,86.89
2019-03-18T10:37:05.308Z,86.89
2019-03-18T10:39:34.306Z,83.12
2019-03-18T10:42:03.417Z,83.12
2019-03-18T10:44:32.473Z,81.39
2019-03-18T10:47:03.152Z,75.30
2019-03-18T10:49:32.185Z,75.30
2019-03-18T10:52:01.267Z,77.09
2019-03-18T10:54:31.395Z,72.92
2019-03-18T10:57:00.615Z,72.92
2019-03-18T10:59:29.646Z,74.02
2019-03-18T11:01:58.691Z,72.99
2019-03-18T11:04:27.738Z,67.89
2019-03-18T11:06:56.882Z,70.73
2019-03-18T11:09:25.980Z,70.73
2019-03-18T11:11:55.076Z,67.29
2019-03-18T11:14:24.144Z,67.29
2019-03-18T11:16:53.205Z,66.93
2019-03-18T11:19:22.272Z,63.90
2019-03-18T11:21:51.275Z,65.22
2019-03-18T11:24:22.948Z,65.22
2019-03-18T11:26:52.030Z,65.12
2019-03-18T11:29:21.168Z,65.19
2019-03-18T11:31:50.248Z,65.19
2019-03-18T11:34:19.248Z,63.69
2019-03-18T11:36:48.240Z,63.69
2019-03-18T11:39:17.264Z,67.68
2019-03-18T11:41:46.265Z,66.99
2019-03-18T11:44:15.286Z,66.99
2019-03-18T11:46:44.428Z,65.51
2019-03-18T11:49:13.392Z,64.16
2019-03-18T11:51:42.410Z,59.17
2019-03-18T11:54:11.554Z,59.17
2019-03-18T11:56:41.480Z,59.25
2019-03-18T11:59:13.522Z,59.25
2019-03-18T12:01:42.576Z,55.62
2019-03-18T12:04:11.680Z,55.62
2019-03-18T12:06:40.724Z,58.06
2019-03-18T12:09:09.970Z,58.06
2019-03-18T12:11:39.046Z,63.65
2019-03-18T12:14:08.023Z,66.08
2019-03-18T12:16:37.046Z,70.33
2019-03-18T12:19:06.129Z,71.42
2019-03-18T12:21:35.136Z,71.42
2019-03-18T12:24:04.228Z,75.10
2019-03-18T12:26:33.331Z,75.10
2019-03-18T12:29:02.526Z,74.22
2019-03-18T12:31:31.559Z,74.22
2019-03-18T12:34:00.538Z,76.16
2019-03-18T12:36:29.618Z,76.55
2019-03-18T12:38:58.820Z,77.65
2019-03-18T12:41:28.041Z,77.65
2019-03-18T12:43:57.104Z,76.81
2019-03-18T12:46:26.216Z,74.93
2019-03-18T12:48:55.441Z,80.29
2019-03-18T12:51:24.499Z,80.29
2019-03-18T12:53:53.497Z,80.67
2019-03-18T12:56:22.518Z,79.26
2019-03-18T12:58:51.516Z,78.55
2019-03-18T13:01:20.670Z,78.55
2019-03-18T13:03:50.098Z,79.07
2019-03-18T13:06:19.305Z,85.83
2019-03-18T13:08:48.325Z,88.03
2019-03-18T13:11:17.308Z,88.03
2019-03-18T13:13:46.284Z,87.69
2019-03-18T13:16:18.436Z,87.77
2019-03-18T13:18:47.457Z,84.60
2019-03-18T13:21:21.133Z,84.93
2019-03-18T13:23:50.292Z,82.85
2019-03-18T13:26:19.269Z,82.41
2019-03-18T13:28:48.304Z,79.96
2019-03-18T13:31:19.101Z,78.63
2019-03-18T13:33:49.494Z,79.34
2019-03-18T13:36:18.479Z,76.22
2019-03-18T13:38:47.544Z,76.22
2019-03-18T13:41:16.877Z,76.64
2019-03-18T13:43:45.913Z,75.46
2019-03-18T13:46:14.987Z,74.24
2019-03-18T13:48:43.999Z,72.84
2019-03-18T13:51:20.908Z,72.84
2019-03-18T13:53:43.796Z,72.02
2019-03-18T13:56:12.781Z,72.85
2019-03-18T13:58:41.784Z,73.24
2019-03-18T14:01:10.933Z,72.13
2019-03-18T14:03:40.003Z,68.29
2019-03-18T14:06:17.004Z,68.29
2019-03-18T14:08:46.072Z,68.53
2019-03-18T14:11:15.160Z,68.11
2019-03-18T14:13:44.149Z,63.58
2019-03-18T14:16:13.173Z,63.58
2019-03-18T14:18:42.270Z,66.40
2019-03-18T14:21:11.380Z,65.87
2019-03-18T14:23:40.367Z,68.13
2019-03-18T14:26:09.389Z,68.13
2019-03-18T14:28:39.736Z,65.93
2019-03-18T14:31:08.722Z,61.77
2019-03-18T14:33:37.739Z,63.05
2019-03-18T14:36:06.719Z,58.63
2019-03-18T14:38:38.404Z,56.39
2019-03-18T14:41:07.775Z,54.95
2019-03-18T14:43:36.793Z,51.69
2019-03-18T14:46:05.948Z,50.90
2019-03-18T14:48:37.086Z,52.18
2019-03-18T14:51:11.923Z,54.02
2019-03-18T14:53:50.293Z,52.92
2019-03-18T14:56:19.663Z,50.67
2019-03-18T14:58:48.699Z,50.67
2019-03-18T15:01:17.774Z,49.46
2019-03-18T15:03:49.072Z,51.71
2019-03-18T15:06:21.199Z,53.36
2019-03-18T15:08:51.766Z,54.40
2019-03-18T15:11:20.792Z,56.62
2019-03-18T15:13:51.392Z,59.16
2019-03-18T15:16:20.573Z,60.63
2019-03-18T15:18:49.970Z,60.63
2019-03-18T15:21:18.968Z,57.73
2019-03-18T15:23:47.957Z,57.73
2019-03-18T15:26:16.950Z,59.91
2019-03-18T15:28:45.963Z,59.91
2019-03-18T15:31:14.982Z,60.36
2019-03-18T15:33:43.974Z,62.79
2019-03-18T15:36:12.960Z,62.40
2019-03-18T15:38:41.994Z,62.39
2019-03-18T15:41:16.201Z,63.94
2019-03-18T15:43:47.591Z,63.94
2019-03-18T15:46:16.699Z,64.22
2019-03-18T15:48:45.825Z,65.47
2019-03-18T15:51:14.986Z,65.47
2019-03-18T15:53:44.007Z,67.40
2019-03-18T15:56:13.094Z,67.31
2019-03-18T15:58:42.082Z,65.88
2019-03-18T16:01:11.302Z,65.88
2019-03-18T16:04:01.532Z,66.54
2019-03-18T16:06:30.561Z,67.69
2019-03-18T16:08:59.670Z,67.32
2019-03-18T16:11:37.147Z,67.32
2019-03-18T16:14:06.931Z,64.91
2019-03-18T16:16:35.915Z,65.79
2019-03-18T16:19:08.116Z,65.48
2019-03-18T16:21:37.115Z,66.18
2019-03-18T16:24:07.696Z,65.67
2019-03-18T16:26:44.917Z,68.20
2019-03-18T16:29:13.996Z,68.20
2019-03-18T16:31:43.000Z,66.87
2019-03-18T16:34:12.133Z,68.33
2019-03-18T16:36:41.132Z,68.33
2019-03-18T16:39:10.262Z,66.68
2019-03-18T16:41:39.248Z,67.79
2019-03-18T16:44:08.287Z,69.22
2019-03-18T16:46:37.386Z,69.22
2019-03-18T16:49:06.480Z,70.43
2019-03-18T16:51:41.800Z,70.49
2019-03-18T16:54:10.878Z,71.13
2019-03-18T16:56:39.972Z,70.46
2019-03-18T16:59:09.006Z,71.45
2019-03-18T17:01:38.122Z,71.76
2019-03-18T17:04:07.181Z,71.76
2019-03-18T17:06:37.967Z,71.84
2019-03-18T17:09:08.157Z,72.04
2019-03-18T17:11:37.249Z,71.63
2019-03-18T17:14:06.252Z,71.63
2019-03-18T17:16:35.281Z,72.08
2019-03-18T17:19:04.359Z,73.07
2019-03-18T17:21:33.739Z,73.07
2019-03-18T17:24:02.754Z,73.37
2019-03-18T17:26:31.742Z,72.75
2019-03-18T17:29:00.773Z,73.28
2019-03-18T17:31:30.496Z,73.57
2019-03-18T17:33:59.574Z,73.75
2019-03-18T17:36:28.596Z,72.04
2019-03-18T17:38:57.586Z,70.72
2019-03-18T17:41:26.660Z,70.72
2019-03-18T17:43:55.837Z,73.56
2019-03-18T17:46:24.875Z,73.56
2019-03-18T17:48:53.896Z,73.14
2019-03-18T17:51:22.906Z,74.87
2019-03-18T17:53:51.915Z,73.39
2019-03-18T17:56:29.713Z,75.62
2019-03-18T17:58:51.659Z,74.30
2019-03-18T18:01:20.668Z,74.30
2019-03-18T18:03:49.750Z,75.50
2019-03-18T18:06:18.853Z,75.50
2019-03-18T18:08:47.872Z,74.62
2019-03-18T18:11:16.958Z,75.27
2019-03-18T18:13:46.049Z,77.31
2019-03-18T18:16:15.109Z,79.05
2019-03-18T18:18:44.204Z,79.05
2019-03-18T18:21:13.221Z,79.21
2019-03-18T18:23:42.229Z,79.21
2019-03-18T18:26:11.272Z,81.23
2019-03-18T18:28:40.430Z,83.41
2019-03-18T18:31:09.451Z,83.05
2019-03-18T18:33:38.550Z,82.03
2019-03-18T18:36:07.531Z,82.84
2019-03-18T18:38:36.552Z,83.27
2019-03-18T18:41:05.700Z,81.27
2019-03-18T18:43:34.795Z,81.77
2019-03-18T18:46:03.841Z,83.98
2019-03-18T18:48:32.825Z,83.91
2019-03-18T18:51:01.857Z,83.10
2019-03-18T18:53:32.715Z,83.10
2019-03-18T18:56:01.784Z,84.81
2019-03-18T18:58:30.794Z,86.26
2019-03-18T19:00:59.970Z,86.98
2019-03-18T19:03:31.934Z,86.98
2019-03-18T19:06:03.026Z,88.69
2019-03-18T19:08:32.064Z,88.93
2019-03-18T19:11:02.912Z,89.42
2019-03-18T19:13:31.901Z,89.42
2019-03-18T19:16:00.915Z,89.79
2019-03-18T19:18:37.787Z,89.92
2019-03-18T19:21:00.769Z,89.92
2019-03-18T19:23:37.589Z,90.09
2019-03-18T19:26:00.713Z,90.75
2019-03-18T19:28:29.713Z,91.18
2019-03-18T19:30:58.811Z,91.18
2019-03-18T19:33:27.812Z,91.37
2019-03-18T19:35:57.274Z,91.29
2019-03-18T19:38:26.348Z,91.29
2019-03-18T19:40:55.419Z,91.70
2019-03-18T19:43:24.414Z,91.44
2019-03-18T19:45:54.652Z,91.83
2019-03-18T19:48:23.673Z,92.55
2019-03-18T19:50:52.869Z,92.55
2019-03-18T19:53:21.970Z,94.22
2019-03-18T19:55:51.756Z,95.35
2019-03-18T19:58:23.247Z,95.35
2019-03-18T20:00:52.360Z,95.07
2019-03-18T20:03:21.471Z,94.69
2019-03-18T20:05:50.474Z,95.12
2019-03-18T20:08:20.714Z,95.44
2019-03-18T20:10:51.445Z,95.44
2019-03-18T20:13:20.821Z,94.86
2019-03-18T20:15:49.922Z,95.15
2019-03-18T20:18:18.976Z,95.73
2019-03-18T20:20:48.069Z,95.54
2019-03-18T20:23:17.171Z,93.25
2019-03-18T20:25:48.382Z,91.84
2019-03-18T20:28:17.386Z,92.46
2019-03-18T20:30:46.920Z,93.88
2019-03-18T20:33:15.903Z,93.88
2019-03-18T20:35:44.973Z,92.20
2019-03-18T20:38:14.008Z,93.54
2019-03-18T20:40:42.982Z,94.35
2019-03-18T20:43:12.157Z,94.35
2019-03-18T20:45:41.239Z,95.06
2019-03-18T20:48:10.556Z,94.63
2019-03-18T20:50:39.667Z,94.02
2019-03-18T20:53:08.745Z,94.02
2019-03-18T20:55:37.768Z,95.40
2019-03-18T20:58:06.840Z,96.62
2019-03-18T21:00:35.958Z,96.62
2019-03-18T21:03:05.125Z,97.15
2019-03-18T21:05:34.261Z,96.87
2019-03-18T21:08:03.383Z,95.88
2019-03-18T21:10:32.362Z,95.60
2019-03-18T21:13:01.776Z,96.70
2019-03-18T21:15:30.830Z,96.70
2019-03-18T21:18:00.179Z,97.17
2019-03-18T21:20:29.595Z,97.17
2019-03-18T21:22:58.696Z,98.13
2019-03-18T21:25:27.778Z,98.08
2019-03-18T21:27:56.819Z,98.08
2019-03-18T21:30:25.940Z,99.18
2019-03-18T21:32:55.021Z,99.79
2019-03-18T21:35:24.067Z,99.79
2019-03-18T21:37:53.041Z,100.00
2019-03-18T21:40:22.197Z,100.00
2019-03-18T21:42:53.504Z,99.27
2019-03-18T21:45:25.615Z,99.14
2019-03-18T21:47:54.759Z,98.99
2019-03-18T21:50:24.164Z,100.00
2019-03-18T21:52:53.335Z,99.41
2019-03-18T21:55:22.359Z,100.00
2019-03-18T21:57:51.440Z,100.00
2019-03-18T22:00:20.807Z,100.00
2019-03-18T22:02:50.072Z,99.99
2019-03-18T22:05:19.214Z,99.99
2019-03-18T22:07:48.285Z,100.00
2019-03-18T22:10:17.560Z,100.00
2019-03-18T22:12:47.555Z,100.00
2019-03-18T22:15:16.775Z,100.00
2019-03-18T22:17:46.089Z,100.00
2019-03-18T22:20:15.389Z,100.00
2019-03-18T22:22:44.664Z,100.00
2019-03-18T22:25:13.964Z,100.00
2019-03-18T22:27:42.967Z,100.00
2019-03-18T22:30:12.426Z,100.00
2019-03-18T22:32:41.497Z,100.00
2019-03-18T22:35:10.855Z,100.00
2019-03-18T22:37:39.899Z,100.00
2019-03-18T22:40:09.171Z,100.00
2019-03-18T22:42:38.210Z,100.00
2019-03-18T22:45:07.695Z,100.00
2019-03-18T22:47:36.691Z,100.00
2019-03-18T22:50:06.699Z,100.00
2019-03-18T22:52:35.794Z,100.00
2019-03-18T22:55:05.963Z,100.00
2019-03-18T22:57:35.055Z,100.00
2019-03-18T23:00:05.144Z,100.00
2019-03-18T23:02:34.255Z,100.00
2019-03-18T23:05:03.427Z,100.00
2019-03-18T23:07:32.444Z,100.00
2019-03-18T23:10:01.460Z,100.00
2019-03-18T23:12:30.455Z,100.00
2019-03-18T23:14:59.494Z,100.00
2019-03-18T23:17:28.541Z,100.00
2019-03-18T23:19:57.602Z,100.00
2019-03-18T23:22:26.786Z,100.00
2019-03-18T23:25:06.284Z,100.00
2019-03-18T23:27:26.578Z,100.00
2019-03-18T23:29:55.614Z,100.00
2019-03-18T23:32:24.737Z,100.00
2019-03-18T23:34:53.792Z,100.00
2019-03-18T23:37:22.863Z,100.00
2019-03-18T23:39:51.837Z,100.00
2019-03-18T23:42:20.839Z,100.00
2019-03-18T23:44:49.895Z,100.00
2019-03-18T23:47:18.947Z,100.00
2019-03-18T23:49:48.008Z,100.00
2019-03-18T23:52:17.101Z,100.00
2019-03-18T23:54:46.240Z,100.00
2019-03-18T23:57:15.259Z,100.00
2019-03-18T23:59:44.311Z,100.00
